createdAt,value
2023-06-07T00:00:43.047Z,98405.47
2023-06-07T00:03:10.753Z,98411.72
2023-06-07T00:05:38.398Z,98409.72
2023-06-07T00:08:05.341Z,98408.31
2023-06-07T00:10:33.178Z,98412.50
2023-06-07T00:13:00.112Z,98407.25
2023-06-07T00:15:26.850Z,98413.69
2023-06-07T00:17:54.195Z,98411.00
2023-06-07T00:20:20.819Z,98413.25
2023-06-07T00:22:48.638Z,98413.28
2023-06-07T00:25:15.232Z,98409.09
2023-06-07T00:27:41.734Z,98411.72
2023-06-07T00:30:09.010Z,98422.97
2023-06-07T00:32:35.579Z,98414.59
2023-06-07T00:35:02.151Z,98408.13
2023-06-07T00:37:28.722Z,98414.53
2023-06-07T00:39:55.306Z,98415.34
2023-06-07T00:42:21.836Z,98424.03
2023-06-07T00:44:48.518Z,98423.13
2023-06-07T00:47:15.271Z,98421.16
2023-06-07T00:49:43.711Z,98418.66
2023-06-07T00:52:11.170Z,98427.56
2023-06-07T00:54:38.294Z,98417.31
2023-06-07T00:57:06.494Z,98423.72
2023-06-07T00:59:33.228Z,98419.59
2023-06-07T01:02:02.389Z,98421.75
2023-06-07T01:04:30.337Z,98426.06
2023-06-07T01:06:57.143Z,98423.13
2023-06-07T01:09:24.893Z,98427.66
2023-06-07T01:11:54.196Z,98431.56
2023-06-07T01:14:22.523Z,98434.63
2023-06-07T01:16:51.989Z,98430.06
2023-06-07T01:19:24.716Z,98433.31
2023-06-07T01:21:55.782Z,98435.50
2023-06-07T01:24:23.451Z,98433.91
2023-06-07T01:26:58.292Z,98432.03
2023-06-07T01:29:27.211Z,98434.03
2023-06-07T01:31:55.700Z,98430.97
2023-06-07T01:34:22.627Z,98433.09
2023-06-07T01:36:49.932Z,98431.03
2023-06-07T01:39:19.770Z,98434.63
2023-06-07T01:41:49.172Z,98432.44
2023-06-07T01:44:16.450Z,98442.59
2023-06-07T01:46:43.718Z,98441.66
2023-06-07T01:49:10.351Z,98447.09
2023-06-07T01:51:37.285Z,98443.41
2023-06-07T01:54:05.589Z,98447.31
2023-06-07T01:56:41.139Z,98445.28
2023-06-07T01:59:36.940Z,98452.41
2023-06-07T02:02:12.491Z,98446.41
2023-06-07T02:04:46.114Z,98445.66
2023-06-07T02:07:23.571Z,98449.72
2023-06-07T02:09:51.743Z,98447.63
2023-06-07T02:12:21.452Z,98452.03
2023-06-07T02:14:52.289Z,98455.63
2023-06-07T02:17:19.476Z,98448.91
2023-06-07T02:19:46.409Z,98453.78
2023-06-07T02:22:15.337Z,98450.88
2023-06-07T02:24:42.247Z,98449.50
2023-06-07T02:27:10.093Z,98451.44
2023-06-07T02:29:36.703Z,98460.59
2023-06-07T02:32:03.386Z,98458.91
2023-06-07T02:34:33.625Z,98463.50
2023-06-07T02:37:00.250Z,98468.22
2023-06-07T02:39:26.862Z,98464.84
2023-06-07T02:41:53.338Z,98469.59
2023-06-07T02:44:19.902Z,98466.91
2023-06-07T02:46:46.686Z,98474.78
2023-06-07T02:49:13.330Z,98464.50
2023-06-07T02:51:40.338Z,98463.69
2023-06-07T02:54:10.850Z,98464.50
2023-06-07T02:56:37.488Z,98463.75
2023-06-07T02:59:04.077Z,98471.97
2023-06-07T03:01:34.474Z,98477.38
2023-06-07T03:04:01.190Z,98475.78
2023-06-07T03:06:30.582Z,98472.59
2023-06-07T03:08:59.877Z,98472.06
2023-06-07T03:11:26.450Z,98469.31
2023-06-07T03:13:52.982Z,98468.03
2023-06-07T03:16:19.582Z,98463.97
2023-06-07T03:18:46.571Z,98469.06
2023-06-07T03:21:13.089Z,98475.03
2023-06-07T03:23:39.675Z,98475.00
2023-06-07T03:26:06.401Z,98467.44
2023-06-07T03:28:33.218Z,98469.56
2023-06-07T03:30:59.781Z,98476.06
2023-06-07T03:33:26.376Z,98466.84
2023-06-07T03:35:52.969Z,98467.72
2023-06-07T03:38:19.529Z,98469.09
2023-06-07T03:40:46.091Z,98467.59
2023-06-07T03:43:12.596Z,98465.38
2023-06-07T03:45:39.142Z,98466.44
2023-06-07T03:48:05.976Z,98478.19
2023-06-07T03:50:32.648Z,98480.94
2023-06-07T03:52:59.215Z,98479.59
2023-06-07T03:55:25.792Z,98476.75
2023-06-07T03:57:52.786Z,98485.53
2023-06-07T04:00:19.494Z,98470.28
2023-06-07T04:02:46.750Z,98474.34
2023-06-07T04:05:13.997Z,98474.31
2023-06-07T04:07:41.870Z,98473.00
2023-06-07T04:10:08.635Z,98470.84
2023-06-07T04:12:35.448Z,98470.34
2023-06-07T04:15:02.247Z,98473.56
2023-06-07T04:17:28.795Z,98467.53
2023-06-07T04:19:57.710Z,98471.88
2023-06-07T04:22:25.612Z,98464.38
2023-06-07T04:24:52.946Z,98464.81
2023-06-07T04:27:19.760Z,98470.13
2023-06-07T04:29:50.131Z,98473.78
2023-06-07T04:32:20.068Z,98471.16
2023-06-07T04:34:47.425Z,98459.72
2023-06-07T04:37:13.993Z,98467.06
2023-06-07T04:39:42.272Z,98467.28
2023-06-07T04:42:10.524Z,98471.09
2023-06-07T04:44:38.102Z,98467.84
2023-06-07T04:47:09.876Z,98474.38
2023-06-07T04:49:39.788Z,98467.28
2023-06-07T04:52:06.937Z,98464.13
2023-06-07T04:54:33.636Z,98465.09
2023-06-07T04:57:01.013Z,98462.19
2023-06-07T04:59:30.711Z,98456.72
2023-06-07T05:01:57.315Z,98468.22
2023-06-07T05:04:23.916Z,98468.19
2023-06-07T05:06:50.519Z,98476.88
2023-06-07T05:09:17.119Z,98473.84
2023-06-07T05:11:43.612Z,98477.00
2023-06-07T05:14:10.089Z,98476.78
2023-06-07T05:16:36.918Z,98473.63
2023-06-07T05:19:04.944Z,98473.38
2023-06-07T05:21:31.623Z,98476.28
2023-06-07T05:23:58.213Z,98472.56
2023-06-07T05:26:24.821Z,98468.97
2023-06-07T05:28:52.299Z,98469.81
2023-06-07T05:31:20.112Z,98468.84
2023-06-07T05:33:46.765Z,98467.56
2023-06-07T05:36:13.320Z,98465.13
2023-06-07T05:38:40.044Z,98464.81
2023-06-07T05:41:06.647Z,98469.69
2023-06-07T05:43:33.231Z,98463.22
2023-06-07T05:45:59.801Z,98461.47
2023-06-07T05:48:26.294Z,98463.44
2023-06-07T05:50:53.282Z,98460.34
2023-06-07T05:53:19.860Z,98464.88
2023-06-07T05:55:47.179Z,98460.78
2023-06-07T05:58:13.789Z,98454.75
2023-06-07T06:00:41.852Z,98461.53
2023-06-07T06:03:09.658Z,98456.91
2023-06-07T06:05:36.327Z,98460.88
2023-06-07T06:08:03.922Z,98467.97
2023-06-07T06:10:32.386Z,98470.50
2023-06-07T06:13:00.540Z,98465.03
2023-06-07T06:15:27.115Z,98470.63
2023-06-07T06:17:56.886Z,98462.84
2023-06-07T06:20:23.550Z,98473.66
2023-06-07T06:22:50.057Z,98465.63
2023-06-07T06:25:16.677Z,98466.91
2023-06-07T06:27:43.438Z,98461.59
2023-06-07T06:30:10.321Z,98473.44
2023-06-07T06:32:36.968Z,98469.03
2023-06-07T06:35:04.374Z,98469.69
2023-06-07T06:37:31.288Z,98467.13
2023-06-07T06:39:58.015Z,98485.19
2023-06-07T06:42:24.780Z,98475.84
2023-06-07T06:44:51.306Z,98469.44
2023-06-07T06:47:17.916Z,98472.13
2023-06-07T06:49:44.591Z,98470.56
2023-06-07T06:52:11.362Z,98475.03
2023-06-07T06:54:37.833Z,98470.53
2023-06-07T06:57:04.839Z,98467.09
2023-06-07T06:59:31.379Z,98467.63
2023-06-07T07:01:58.161Z,98473.19
2023-06-07T07:04:24.796Z,98466.28
2023-06-07T07:06:51.583Z,98464.75
2023-06-07T07:09:20.845Z,98476.47
2023-06-07T07:11:47.429Z,98469.22
2023-06-07T07:14:14.113Z,98478.47
2023-06-07T07:16:40.930Z,98473.53
2023-06-07T07:19:07.516Z,98464.94
2023-06-07T07:21:34.000Z,98477.44
2023-06-07T07:24:00.586Z,98470.75
2023-06-07T07:26:27.329Z,98474.31
2023-06-07T07:28:54.624Z,98477.25
2023-06-07T07:31:22.298Z,98464.34
2023-06-07T07:33:49.364Z,98470.03
2023-06-07T07:36:18.725Z,98467.50
2023-06-07T07:38:47.219Z,98471.63
2023-06-07T07:41:15.489Z,98466.72
2023-06-07T07:43:42.084Z,98470.69
2023-06-07T07:46:08.756Z,98465.88
2023-06-07T07:48:35.545Z,98461.00
2023-06-07T07:51:03.271Z,98465.91
2023-06-07T07:53:29.826Z,98471.66
2023-06-07T07:55:56.660Z,98472.66
2023-06-07T07:58:23.277Z,98470.31
2023-06-07T08:00:49.794Z,98464.69
2023-06-07T08:03:16.662Z,98472.75
2023-06-07T08:05:43.464Z,98472.34
2023-06-07T08:08:09.931Z,98474.00
2023-06-07T08:10:36.855Z,98476.88
2023-06-07T08:13:03.415Z,98470.28
2023-06-07T08:15:30.297Z,98464.81
2023-06-07T08:17:56.859Z,98454.56
2023-06-07T08:20:23.387Z,98458.44
2023-06-07T08:22:54.340Z,98460.13
2023-06-07T08:25:21.064Z,98457.72
2023-06-07T08:27:47.811Z,98465.94
2023-06-07T08:30:15.316Z,98461.69
2023-06-07T08:32:43.468Z,98462.38
2023-06-07T08:35:12.024Z,98455.75
2023-06-07T08:37:39.057Z,98461.53
2023-06-07T08:40:07.357Z,98457.63
2023-06-07T08:42:34.455Z,98455.31
2023-06-07T08:45:01.419Z,98452.16
2023-06-07T08:47:29.490Z,98456.59
2023-06-07T08:49:57.855Z,98456.63
2023-06-07T08:52:26.055Z,98455.66
2023-06-07T08:54:56.249Z,98456.13
2023-06-07T08:57:23.677Z,98456.81
2023-06-07T08:59:50.604Z,98454.03
2023-06-07T09:02:17.735Z,98465.59
2023-06-07T09:04:44.836Z,98450.84
2023-06-07T09:07:11.792Z,98464.97
2023-06-07T09:09:41.255Z,98455.47
2023-06-07T09:12:08.154Z,98450.97
2023-06-07T09:14:35.622Z,98443.78
2023-06-07T09:17:04.171Z,98443.03
2023-06-07T09:19:41.075Z,98453.78
2023-06-07T09:22:09.873Z,98447.88
2023-06-07T09:24:38.212Z,98439.47
2023-06-07T09:27:05.765Z,98446.34
2023-06-07T09:29:43.609Z,98449.50
2023-06-07T09:32:25.614Z,98449.38
2023-06-07T09:34:55.102Z,98451.28
2023-06-07T09:37:22.692Z,98445.00
2023-06-07T09:39:53.207Z,98446.25
2023-06-07T09:42:19.831Z,98449.34
2023-06-07T09:44:46.503Z,98448.81
2023-06-07T09:47:24.105Z,98441.75
2023-06-07T09:49:56.337Z,98439.13
2023-06-07T09:52:23.436Z,98428.72
2023-06-07T09:54:49.942Z,98436.50
2023-06-07T09:57:25.629Z,98429.28
2023-06-07T10:00:16.650Z,98428.84
2023-06-07T10:02:44.501Z,98433.44
2023-06-07T10:05:13.971Z,98434.84
2023-06-07T10:07:46.046Z,98430.53
2023-06-07T10:10:15.886Z,98433.09
2023-06-07T10:12:45.348Z,98431.59
2023-06-07T10:15:17.000Z,98427.47
2023-06-07T10:17:55.202Z,98436.19
2023-06-07T10:20:32.840Z,98417.75
2023-06-07T10:23:07.520Z,98423.63
2023-06-07T10:25:51.065Z,98415.59
2023-06-07T10:28:22.635Z,98411.19
2023-06-07T10:30:54.571Z,98420.44
2023-06-07T10:33:24.218Z,98411.47
2023-06-07T10:35:51.791Z,98409.31
2023-06-07T10:38:19.712Z,98412.72
2023-06-07T10:40:46.947Z,98412.81
2023-06-07T10:43:13.665Z,98390.44
2023-06-07T10:45:40.824Z,98401.22
2023-06-07T10:48:34.235Z,98390.56
2023-06-07T10:51:00.830Z,98394.53
2023-06-07T10:53:50.373Z,98390.72
2023-06-07T10:56:33.687Z,98397.34
2023-06-07T10:59:15.953Z,98385.72
2023-06-07T11:01:55.451Z,98386.03
2023-06-07T11:04:41.110Z,98386.41
2023-06-07T11:07:21.023Z,98377.41
2023-06-07T11:09:49.768Z,98372.00
2023-06-07T11:12:37.015Z,98371.25
2023-06-07T11:15:25.903Z,98364.38
2023-06-07T11:18:00.724Z,98370.28
2023-06-07T11:20:39.718Z,98368.88
2023-06-07T11:23:31.561Z,98364.09
2023-06-07T11:26:07.454Z,98358.50
2023-06-07T11:28:36.282Z,98351.66
2023-06-07T11:31:04.747Z,98350.78
2023-06-07T11:33:33.437Z,98353.19
2023-06-07T11:36:00.093Z,98349.84
2023-06-07T11:38:29.760Z,98348.56
2023-06-07T11:40:57.316Z,98356.22
2023-06-07T11:43:26.630Z,98351.75
2023-06-07T11:45:56.631Z,98341.47
2023-06-07T11:48:27.959Z,98340.38
2023-06-07T11:50:55.162Z,98344.50
2023-06-07T11:53:22.775Z,98329.19
2023-06-07T11:55:49.596Z,98333.22
2023-06-07T11:58:16.306Z,98320.59
2023-06-07T12:00:45.094Z,98322.19
2023-06-07T12:03:12.761Z,98326.81
2023-06-07T12:05:39.423Z,98321.28
2023-06-07T12:08:14.778Z,98315.81
2023-06-07T12:10:41.303Z,98310.31
2023-06-07T12:13:13.954Z,98312.53
2023-06-07T12:15:47.523Z,98322.31
2023-06-07T12:18:19.972Z,98311.34
2023-06-07T12:20:49.820Z,98306.78
2023-06-07T12:23:21.708Z,98307.41
2023-06-07T12:25:49.181Z,98305.88
2023-06-07T12:28:15.844Z,98300.25
2023-06-07T12:30:43.262Z,98294.59
2023-06-07T12:33:14.782Z,98291.38
2023-06-07T12:35:47.116Z,98288.50
2023-06-07T12:38:14.536Z,98277.50
2023-06-07T12:40:41.210Z,98284.16
2023-06-07T12:43:07.742Z,98283.69
2023-06-07T12:45:34.283Z,98284.50
2023-06-07T12:48:00.921Z,98277.69
2023-06-07T12:50:27.638Z,98271.38
2023-06-07T12:52:54.442Z,98275.69
2023-06-07T12:55:20.954Z,98273.31
2023-06-07T12:57:47.684Z,98262.44
2023-06-07T13:00:15.147Z,98256.59
2023-06-07T13:02:43.161Z,98256.25
2023-06-07T13:05:13.783Z,98258.72
2023-06-07T13:07:41.383Z,98249.13
2023-06-07T13:10:09.236Z,98249.84
2023-06-07T13:12:36.167Z,98245.28
2023-06-07T13:15:02.809Z,98232.25
2023-06-07T13:17:29.565Z,98240.75
2023-06-07T13:19:56.284Z,98242.22
2023-06-07T13:22:22.884Z,98234.34
2023-06-07T13:24:49.450Z,98225.34
2023-06-07T13:27:15.978Z,98229.69
2023-06-07T13:29:42.866Z,98235.69
2023-06-07T13:32:09.707Z,98231.78
2023-06-07T13:34:36.432Z,98224.34
2023-06-07T13:37:02.955Z,98231.41
2023-06-07T13:39:29.552Z,98229.31
2023-06-07T13:41:56.747Z,98229.00
2023-06-07T13:44:23.383Z,98234.72
2023-06-07T13:46:51.048Z,98238.50
2023-06-07T13:49:18.056Z,98229.47
2023-06-07T13:51:44.699Z,98229.31
2023-06-07T13:54:11.368Z,98236.66
2023-06-07T13:56:38.061Z,98227.81
2023-06-07T13:59:04.574Z,98224.28
2023-06-07T14:01:31.349Z,98218.09
2023-06-07T14:03:59.045Z,98225.59
2023-06-07T14:06:28.072Z,98238.97
2023-06-07T14:08:54.603Z,98229.41
2023-06-07T14:11:22.803Z,98225.88
2023-06-07T14:13:49.368Z,98226.63
2023-06-07T14:16:16.453Z,98219.84
2023-06-07T14:18:42.993Z,98208.75
2023-06-07T14:21:09.549Z,98208.34
2023-06-07T14:23:36.269Z,98213.94
2023-06-07T14:26:02.768Z,98206.78
2023-06-07T14:28:29.304Z,98209.09
2023-06-07T14:30:55.839Z,98204.09
2023-06-07T14:33:22.351Z,98191.53
2023-06-07T14:35:48.881Z,98201.25
2023-06-07T14:38:15.603Z,98188.41
2023-06-07T14:40:42.189Z,98184.00
2023-06-07T14:43:08.724Z,98195.22
2023-06-07T14:45:35.372Z,98186.53
2023-06-07T14:48:06.264Z,98190.41
2023-06-07T14:50:33.160Z,98195.31
2023-06-07T14:53:00.522Z,98191.78
2023-06-07T14:55:27.035Z,98188.97
2023-06-07T14:57:54.620Z,98185.06
2023-06-07T15:00:21.774Z,98185.78
2023-06-07T15:02:48.364Z,98185.47
2023-06-07T15:05:14.946Z,98183.97
2023-06-07T15:07:41.483Z,98184.84
2023-06-07T15:10:08.902Z,98183.50
2023-06-07T15:12:35.790Z,98177.88
2023-06-07T15:15:02.356Z,98179.44
2023-06-07T15:17:28.884Z,98180.16
2023-06-07T15:19:55.576Z,98179.00
2023-06-07T15:22:22.073Z,98182.34
2023-06-07T15:24:49.889Z,98172.09
2023-06-07T15:27:16.678Z,98178.31
2023-06-07T15:29:43.273Z,98175.69
2023-06-07T15:32:09.760Z,98177.84
2023-06-07T15:34:36.480Z,98175.47
2023-06-07T15:37:03.143Z,98175.75
2023-06-07T15:39:29.724Z,98172.66
2023-06-07T15:41:56.301Z,98177.72
2023-06-07T15:44:22.860Z,98173.78
2023-06-07T15:46:50.031Z,98168.22
2023-06-07T15:49:19.510Z,98163.94
2023-06-07T15:51:46.783Z,98165.44
2023-06-07T15:54:13.345Z,98168.84
2023-06-07T15:56:43.858Z,98161.53
2023-06-07T15:59:11.465Z,98168.56
2023-06-07T16:01:39.030Z,98171.34
2023-06-07T16:04:05.786Z,98166.41
2023-06-07T16:06:33.053Z,98157.91
2023-06-07T16:09:04.012Z,98164.75
2023-06-07T16:11:30.616Z,98160.69
2023-06-07T16:13:57.188Z,98165.78
2023-06-07T16:16:23.812Z,98163.91
2023-06-07T16:18:52.794Z,98168.22
2023-06-07T16:21:19.744Z,98157.84
2023-06-07T16:23:46.367Z,98160.78
2023-06-07T16:26:12.889Z,98158.75
2023-06-07T16:28:39.414Z,98158.03
2023-06-07T16:31:06.045Z,98157.25
2023-06-07T16:33:32.681Z,98155.59
2023-06-07T16:35:59.185Z,98150.91
2023-06-07T16:38:25.741Z,98155.28
2023-06-07T16:40:52.244Z,98158.13
2023-06-07T16:43:18.714Z,98158.47
2023-06-07T16:45:45.251Z,98154.66
2023-06-07T16:48:11.814Z,98165.31
2023-06-07T16:50:38.446Z,98154.25
2023-06-07T16:53:05.986Z,98154.03
2023-06-07T16:55:32.662Z,98166.03
2023-06-07T16:57:59.190Z,98157.75
2023-06-07T17:00:26.274Z,98151.03
2023-06-07T17:02:52.872Z,98150.09
2023-06-07T17:05:21.018Z,98156.56
2023-06-07T17:07:47.664Z,98154.97
2023-06-07T17:10:14.327Z,98156.41
2023-06-07T17:12:40.881Z,98145.44
2023-06-07T17:15:07.947Z,98151.16
2023-06-07T17:17:34.466Z,98154.22
2023-06-07T17:20:00.957Z,98157.13
2023-06-07T17:22:27.498Z,98148.28
2023-06-07T17:24:54.075Z,98158.28
2023-06-07T17:27:20.701Z,98155.66
2023-06-07T17:29:47.175Z,98158.19
2023-06-07T17:32:13.728Z,98155.75
2023-06-07T17:34:40.602Z,98158.00
2023-06-07T17:37:07.135Z,98169.28
2023-06-07T17:39:33.679Z,98166.69
2023-06-07T17:42:00.301Z,98169.56
2023-06-07T17:44:27.547Z,98169.94
2023-06-07T17:46:54.184Z,98166.66
2023-06-07T17:49:20.779Z,98166.41
2023-06-07T17:51:48.494Z,98164.97
2023-06-07T17:54:15.235Z,98171.63
2023-06-07T17:56:41.826Z,98173.34
2023-06-07T17:59:08.414Z,98173.81
2023-06-07T18:01:34.959Z,98171.16
2023-06-07T18:04:06.880Z,98173.00
2023-06-07T18:06:33.601Z,98173.00
2023-06-07T18:09:00.111Z,98175.13
2023-06-07T18:11:27.342Z,98184.25
2023-06-07T18:13:53.852Z,98180.09
2023-06-07T18:16:20.726Z,98183.22
2023-06-07T18:18:47.272Z,98196.22
2023-06-07T18:21:14.692Z,98187.41
2023-06-07T18:23:41.482Z,98194.06
2023-06-07T18:26:08.123Z,98190.28
2023-06-07T18:28:34.890Z,98192.28
2023-06-07T18:31:01.497Z,98189.56
2023-06-07T18:33:31.274Z,98194.13
2023-06-07T18:35:57.900Z,98191.38
2023-06-07T18:38:25.277Z,98186.34
2023-06-07T18:40:52.884Z,98191.84
2023-06-07T18:43:20.257Z,98192.75
2023-06-07T18:45:48.552Z,98192.09
2023-06-07T18:48:17.707Z,98183.84
2023-06-07T18:50:44.370Z,98181.31
2023-06-07T18:53:13.936Z,98191.41
2023-06-07T18:55:40.557Z,98191.19
2023-06-07T18:58:09.273Z,98199.63
2023-06-07T19:00:36.038Z,98201.00
2023-06-07T19:03:02.677Z,98199.53
2023-06-07T19:05:30.113Z,98198.38
2023-06-07T19:07:56.693Z,98202.94
2023-06-07T19:10:23.277Z,98205.22
2023-06-07T19:12:49.803Z,98211.75
2023-06-07T19:15:16.471Z,98212.22
2023-06-07T19:17:43.024Z,98207.03
2023-06-07T19:20:09.873Z,98201.38
2023-06-07T19:22:36.401Z,98208.91
2023-06-07T19:25:03.054Z,98214.16
2023-06-07T19:27:29.844Z,98219.38
2023-06-07T19:29:56.393Z,98211.13
2023-06-07T19:32:22.962Z,98211.41
2023-06-07T19:34:50.223Z,98220.44
2023-06-07T19:37:17.050Z,98224.28
2023-06-07T19:39:43.778Z,98225.59
2023-06-07T19:42:12.819Z,98220.75
2023-06-07T19:44:40.909Z,98223.72
2023-06-07T19:47:08.560Z,98220.06
2023-06-07T19:49:35.566Z,98223.63
2023-06-07T19:52:03.961Z,98228.44
2023-06-07T19:54:30.601Z,98225.38
2023-06-07T19:56:57.220Z,98229.56
2023-06-07T19:59:23.736Z,98235.59
2023-06-07T20:01:50.757Z,98240.72
2023-06-07T20:04:17.569Z,98240.72
2023-06-07T20:06:44.516Z,98236.97
2023-06-07T20:09:11.465Z,98246.59
2023-06-07T20:11:38.091Z,98245.66
2023-06-07T20:14:04.628Z,98243.66
2023-06-07T20:16:31.496Z,98243.88
2023-06-07T20:18:58.081Z,98238.44
2023-06-07T20:21:24.691Z,98245.63
2023-06-07T20:23:52.059Z,98248.56
2023-06-07T20:26:18.664Z,98253.22
2023-06-07T20:28:45.184Z,98252.63
2023-06-07T20:31:11.732Z,98253.22
2023-06-07T20:33:38.389Z,98255.66
2023-06-07T20:36:05.218Z,98261.47
2023-06-07T20:38:31.885Z,98262.47
2023-06-07T20:41:00.133Z,98262.75
2023-06-07T20:43:26.675Z,98262.25
2023-06-07T20:45:53.295Z,98253.13
2023-06-07T20:48:19.872Z,98261.84
2023-06-07T20:50:46.628Z,98257.47
2023-06-07T20:53:13.188Z,98260.03
2023-06-07T20:55:39.686Z,98260.53
2023-06-07T20:58:06.395Z,98262.47
2023-06-07T21:00:32.911Z,98253.91
2023-06-07T21:02:59.675Z,98253.13
2023-06-07T21:05:27.072Z,98252.81
2023-06-07T21:07:53.622Z,98251.22
2023-06-07T21:10:20.139Z,98249.78
2023-06-07T21:12:46.678Z,98249.28
2023-06-07T21:15:13.315Z,98257.34
2023-06-07T21:17:40.535Z,98262.47
2023-06-07T21:20:09.114Z,98269.53
2023-06-07T21:22:35.994Z,98273.41
2023-06-07T21:25:03.321Z,98266.16
2023-06-07T21:27:29.873Z,98263.91
2023-06-07T21:29:56.918Z,98268.88
2023-06-07T21:32:23.453Z,98270.69
2023-06-07T21:34:50.012Z,98275.66
2023-06-07T21:37:17.190Z,98276.78
2023-06-07T21:39:45.039Z,98272.09
2023-06-07T21:42:12.580Z,98272.56
2023-06-07T21:44:39.480Z,98278.03
2023-06-07T21:47:07.416Z,98272.13
2023-06-07T21:49:34.054Z,98269.69
2023-06-07T21:52:00.643Z,98267.44
2023-06-07T21:54:28.376Z,98273.50
2023-06-07T21:56:55.242Z,98269.75
2023-06-07T21:59:24.770Z,98277.75
2023-06-07T22:01:51.457Z,98282.13
2023-06-07T22:04:18.052Z,98282.75
2023-06-07T22:06:44.733Z,98286.31
2023-06-07T22:09:12.361Z,98286.97
2023-06-07T22:11:42.298Z,98279.13
2023-06-07T22:14:10.508Z,98279.31
2023-06-07T22:16:37.142Z,98277.75
2023-06-07T22:19:03.746Z,98286.03
2023-06-07T22:21:31.452Z,98274.59
2023-06-07T22:23:59.004Z,98281.97
2023-06-07T22:26:30.473Z,98280.03
2023-06-07T22:29:05.834Z,98281.34
2023-06-07T22:31:35.485Z,98271.34
2023-06-07T22:34:05.581Z,98275.22
2023-06-07T22:36:33.340Z,98274.28
2023-06-07T22:39:01.227Z,98285.72
2023-06-07T22:41:28.738Z,98281.81
2023-06-07T22:43:57.358Z,98279.59
2023-06-07T22:46:28.132Z,98283.69
2023-06-07T22:49:01.975Z,98278.19
2023-06-07T22:51:31.588Z,98272.84
2023-06-07T22:53:58.211Z,98272.44
2023-06-07T22:56:24.770Z,98281.25
2023-06-07T22:58:51.853Z,98282.53
2023-06-07T23:01:19.873Z,98272.69
2023-06-07T23:03:46.797Z,98275.91
2023-06-07T23:06:13.982Z,98277.44
2023-06-07T23:08:40.514Z,98271.28
2023-06-07T23:11:07.072Z,98277.34
2023-06-07T23:13:33.751Z,98269.47
2023-06-07T23:16:00.248Z,98283.28
2023-06-07T23:18:31.261Z,98281.56
2023-06-07T23:20:57.972Z,98280.31
2023-06-07T23:23:25.059Z,98275.19
2023-06-07T23:25:51.722Z,98271.44
2023-06-07T23:28:18.303Z,98273.06
2023-06-07T23:30:44.803Z,98268.28
2023-06-07T23:33:12.958Z,98270.28
2023-06-07T23:35:42.078Z,98268.25
2023-06-07T23:38:08.673Z,98265.63
2023-06-07T23:40:35.205Z,98268.47
2023-06-07T23:43:03.259Z,98266.69
2023-06-07T23:45:30.144Z,98262.03
2023-06-07T23:47:56.697Z,98258.00
2023-06-07T23:50:23.201Z,98256.63
2023-06-07T23:52:49.735Z,98261.09
2023-06-07T23:55:16.348Z,98263.28
2023-06-07T23:57:42.916Z,98252.03
